sensor_id;sensor_type;location;lat;lon;timestamp;P1;durP1;ratioP1;P2;durP2;ratioP2
23555;SDS011;11956;53.184;8.578;2022-09-21T00:02:36;6.78;;;4.95;;
23555;SDS011;11956;53.184;8.578;2022-09-21T00:05:37;11.35;;;5.90;;
23555;SDS011;11956;53.184;8.578;2022-09-21T00:08:37;8.43;;;5.32;;
23555;SDS011;11956;53.184;8.578;2022-09-21T00:11:38;9.07;;;6.20;;
23555;SDS011;11956;53.184;8.578;2022-09-21T00:14:39;9.95;;;5.53;;
23555;SDS011;11956;53.184;8.578;2022-09-21T00:17:41;9.13;;;5.90;;
23555;SDS011;11956;53.184;8.578;2022-09-21T00:20:44;9.27;;;5.50;;
23555;SDS011;11956;53.184;8.578;2022-09-21T00:23:45;13.40;;;6.45;;
23555;SDS011;11956;53.184;8.578;2022-09-21T00:26:46;10.45;;;6.22;;
23555;SDS011;11956;53.184;8.578;2022-09-21T00:29:47;11.93;;;6.82;;
23555;SDS011;11956;53.184;8.578;2022-09-21T00:32:48;11.68;;;6.97;;
23555;SDS011;11956;53.184;8.578;2022-09-21T00:35:49;13.65;;;7.97;;
23555;SDS011;11956;53.184;8.578;2022-09-21T00:38:51;13.70;;;7.07;;
23555;SDS011;11956;53.184;8.578;2022-09-21T00:41:57;10.88;;;6.57;;
23555;SDS011;11956;53.184;8.578;2022-09-21T00:44:58;14.15;;;8.05;;
23555;SDS011;11956;53.184;8.578;2022-09-21T00:47:59;12.05;;;7.45;;
23555;SDS011;11956;53.184;8.578;2022-09-21T00:51:02;11.70;;;7.20;;
23555;SDS011;11956;53.184;8.578;2022-09-21T00:54:09;11.27;;;7.35;;
23555;SDS011;11956;53.184;8.578;2022-09-21T00:57:15;13.27;;;7.20;;
23555;SDS011;11956;53.184;8.578;2022-09-21T01:00:20;12.27;;;7.30;;
23555;SDS011;11956;53.184;8.578;2022-09-21T01:03:21;11.50;;;7.47;;
23555;SDS011;11956;53.184;8.578;2022-09-21T01:06:22;7.50;;;6.07;;
23555;SDS011;11956;53.184;8.578;2022-09-21T01:09:23;11.02;;;6.90;;
23555;SDS011;11956;53.184;8.578;2022-09-21T01:16:35;11.32;;;7.45;;
23555;SDS011;11956;53.184;8.578;2022-09-21T01:30:12;9.20;;;6.70;;
23555;SDS011;11956;53.184;8.578;2022-09-21T01:33:24;12.52;;;7.30;;
23555;SDS011;11956;53.184;8.578;2022-09-21T01:36:32;13.45;;;8.27;;
23555;SDS011;11956;53.184;8.578;2022-09-21T01:39:35;12.18;;;6.80;;
23555;SDS011;11956;53.184;8.578;2022-09-21T01:42:38;17.75;;;8.60;;
23555;SDS011;11956;53.184;8.578;2022-09-21T01:45:42;15.57;;;9.27;;
23555;SDS011;11956;53.184;8.578;2022-09-21T01:48:52;18.58;;;9.40;;
23555;SDS011;11956;53.184;8.578;2022-09-21T01:52:01;22.83;;;10.57;;
23555;SDS011;11956;53.184;8.578;2022-09-21T01:55:31;23.55;;;10.77;;
23555;SDS011;11956;53.184;8.578;2022-09-21T02:02:12;19.15;;;9.98;;
23555;SDS011;11956;53.184;8.578;2022-09-21T02:05:24;15.00;;;9.68;;
23555;SDS011;11956;53.184;8.578;2022-09-21T02:08:29;20.30;;;9.68;;
23555;SDS011;11956;53.184;8.578;2022-09-21T02:14:32;15.93;;;9.38;;
23555;SDS011;11956;53.184;8.578;2022-09-21T02:17:42;16.00;;;10.25;;
23555;SDS011;11956;53.184;8.578;2022-09-21T02:20:56;19.80;;;9.95;;
23555;SDS011;11956;53.184;8.578;2022-09-21T02:24:03;18.65;;;10.85;;
23555;SDS011;11956;53.184;8.578;2022-09-21T02:30:50;20.52;;;10.52;;
23555;SDS011;11956;53.184;8.578;2022-09-21T02:34:03;15.50;;;9.82;;
23555;SDS011;11956;53.184;8.578;2022-09-21T02:37:43;12.73;;;9.38;;
23555;SDS011;11956;53.184;8.578;2022-09-21T02:41:10;22.38;;;10.00;;
23555;SDS011;11956;53.184;8.578;2022-09-21T02:44:18;28.50;;;10.23;;
23555;SDS011;11956;53.184;8.578;2022-09-21T02:47:41;23.52;;;11.98;;
23555;SDS011;11956;53.184;8.578;2022-09-21T02:50:51;19.15;;;11.10;;
23555;SDS011;11956;53.184;8.578;2022-09-21T02:53:57;20.20;;;11.43;;
23555;SDS011;11956;53.184;8.578;2022-09-21T02:57:03;17.48;;;10.43;;
23555;SDS011;11956;53.184;8.578;2022-09-21T03:00:05;19.83;;;10.13;;
23555;SDS011;11956;53.184;8.578;2022-09-21T03:03:14;15.60;;;10.52;;
23555;SDS011;11956;53.184;8.578;2022-09-21T03:06:21;17.10;;;10.45;;
23555;SDS011;11956;53.184;8.578;2022-09-21T03:09:22;16.10;;;9.00;;
23555;SDS011;11956;53.184;8.578;2022-09-21T03:12:23;14.70;;;9.90;;
23555;SDS011;11956;53.184;8.578;2022-09-21T03:15:25;17.50;;;10.68;;
23555;SDS011;11956;53.184;8.578;2022-09-21T03:18:27;17.50;;;10.40;;
23555;SDS011;11956;53.184;8.578;2022-09-21T03:21:28;19.63;;;10.30;;
23555;SDS011;11956;53.184;8.578;2022-09-21T03:24:29;18.25;;;11.00;;
23555;SDS011;11956;53.184;8.578;2022-09-21T03:27:45;19.63;;;10.80;;
23555;SDS011;11956;53.184;8.578;2022-09-21T03:30:49;20.42;;;11.07;;
23555;SDS011;11956;53.184;8.578;2022-09-21T03:33:51;14.40;;;10.00;;
23555;SDS011;11956;53.184;8.578;2022-09-21T03:36:52;29.90;;;13.27;;
23555;SDS011;11956;53.184;8.578;2022-09-21T03:39:53;24.35;;;13.00;;
23555;SDS011;11956;53.184;8.578;2022-09-21T03:42:54;28.98;;;12.55;;
23555;SDS011;11956;53.184;8.578;2022-09-21T03:45:55;20.70;;;11.52;;
23555;SDS011;11956;53.184;8.578;2022-09-21T03:48:56;31.73;;;13.95;;
23555;SDS011;11956;53.184;8.578;2022-09-21T03:51:57;19.77;;;12.75;;
23555;SDS011;11956;53.184;8.578;2022-09-21T03:54:59;37.58;;;13.90;;
23555;SDS011;11956;53.184;8.578;2022-09-21T03:58:09;26.85;;;13.45;;
23555;SDS011;11956;53.184;8.578;2022-09-21T04:01:18;30.67;;;13.90;;
23555;SDS011;11956;53.184;8.578;2022-09-21T04:04:19;31.10;;;13.48;;
23555;SDS011;11956;53.184;8.578;2022-09-21T04:07:20;55.20;;;14.15;;
23555;SDS011;11956;53.184;8.578;2022-09-21T04:10:22;29.92;;;13.20;;
23555;SDS011;11956;53.184;8.578;2022-09-21T04:13:28;30.98;;;13.30;;
23555;SDS011;11956;53.184;8.578;2022-09-21T04:16:29;78.40;;;17.80;;
23555;SDS011;11956;53.184;8.578;2022-09-21T04:19:30;58.30;;;14.38;;
23555;SDS011;11956;53.184;8.578;2022-09-21T04:22:30;15.63;;;11.15;;
23555;SDS011;11956;53.184;8.578;2022-09-21T04:25:31;26.40;;;12.15;;
23555;SDS011;11956;53.184;8.578;2022-09-21T04:28:32;32.63;;;11.32;;
23555;SDS011;11956;53.184;8.578;2022-09-21T04:31:33;19.23;;;11.02;;
23555;SDS011;11956;53.184;8.578;2022-09-21T04:34:34;14.38;;;11.25;;
23555;SDS011;11956;53.184;8.578;2022-09-21T04:37:38;14.27;;;10.82;;
23555;SDS011;11956;53.184;8.578;2022-09-21T04:40:39;21.92;;;11.90;;
23555;SDS011;11956;53.184;8.578;2022-09-21T04:43:41;31.00;;;13.68;;
23555;SDS011;11956;53.184;8.578;2022-09-21T04:46:43;14.65;;;10.75;;
23555;SDS011;11956;53.184;8.578;2022-09-21T04:49:44;16.08;;;11.95;;
23555;SDS011;11956;53.184;8.578;2022-09-21T04:52:45;42.95;;;14.90;;
23555;SDS011;11956;53.184;8.578;2022-09-21T04:55:46;23.60;;;13.60;;
23555;SDS011;11956;53.184;8.578;2022-09-21T04:58:47;38.58;;;21.85;;
23555;SDS011;11956;53.184;8.578;2022-09-21T05:01:48;24.95;;;12.32;;
23555;SDS011;11956;53.184;8.578;2022-09-21T05:04:49;17.67;;;12.43;;
23555;SDS011;11956;53.184;8.578;2022-09-21T05:07:50;45.38;;;14.35;;
23555;SDS011;11956;53.184;8.578;2022-09-21T05:10:51;26.55;;;14.93;;
23555;SDS011;11956;53.184;8.578;2022-09-21T05:13:52;57.75;;;17.15;;
23555;SDS011;11956;53.184;8.578;2022-09-21T05:16:53;18.15;;;11.02;;
23555;SDS011;11956;53.184;8.578;2022-09-21T05:19:54;54.72;;;14.75;;
23555;SDS011;11956;53.184;8.578;2022-09-21T05:22:58;84.75;;;16.73;;
23555;SDS011;11956;53.184;8.578;2022-09-21T05:26:01;62.50;;;17.70;;
23555;SDS011;11956;53.184;8.578;2022-09-21T05:29:02;25.25;;;12.63;;
23555;SDS011;11956;53.184;8.578;2022-09-21T05:32:53;19.67;;;12.68;;
23555;SDS011;11956;53.184;8.578;2022-09-21T05:35:35;42.78;;;15.07;;
23555;SDS011;11956;53.184;8.578;2022-09-21T05:38:58;16.33;;;12.38;;
23555;SDS011;11956;53.184;8.578;2022-09-21T05:42:00;81.93;;;17.85;;
23555;SDS011;11956;53.184;8.578;2022-09-21T05:45:01;14.45;;;12.40;;
23555;SDS011;11956;53.184;8.578;2022-09-21T05:48:16;50.25;;;16.08;;
23555;SDS011;11956;53.184;8.578;2022-09-21T06:05:18;17.70;;;12.68;;
23555;SDS011;11956;53.184;8.578;2022-09-21T06:08:20;16.35;;;12.57;;
23555;SDS011;11956;53.184;8.578;2022-09-21T06:11:21;16.75;;;12.73;;
23555;SDS011;11956;53.184;8.578;2022-09-21T06:14:22;14.68;;;11.82;;
23555;SDS011;11956;53.184;8.578;2022-09-21T06:17:26;15.27;;;10.98;;
23555;SDS011;11956;53.184;8.578;2022-09-21T06:20:27;15.82;;;11.23;;
23555;SDS011;11956;53.184;8.578;2022-09-21T06:23:28;15.05;;;11.27;;
23555;SDS011;11956;53.184;8.578;2022-09-21T06:26:29;15.27;;;10.77;;
23555;SDS011;11956;53.184;8.578;2022-09-21T06:29:30;15.85;;;10.20;;
23555;SDS011;11956;53.184;8.578;2022-09-21T06:32:31;10.32;;;8.07;;
23555;SDS011;11956;53.184;8.578;2022-09-21T06:35:32;11.75;;;8.93;;
23555;SDS011;11956;53.184;8.578;2022-09-21T06:38:34;6.43;;;5.70;;
23555;SDS011;11956;53.184;8.578;2022-09-21T06:41:36;6.65;;;5.22;;
23555;SDS011;11956;53.184;8.578;2022-09-21T06:44:43;5.25;;;4.63;;
23555;SDS011;11956;53.184;8.578;2022-09-21T06:47:46;5.22;;;3.60;;
23555;SDS011;11956;53.184;8.578;2022-09-21T06:50:47;5.70;;;3.60;;
23555;SDS011;11956;53.184;8.578;2022-09-21T06:53:53;3.53;;;2.38;;
23555;SDS011;11956;53.184;8.578;2022-09-21T06:56:55;5.07;;;2.50;;
23555;SDS011;11956;53.184;8.578;2022-09-21T06:59:56;6.40;;;3.20;;
23555;SDS011;11956;53.184;8.578;2022-09-21T07:02:57;4.32;;;2.60;;
23555;SDS011;11956;53.184;8.578;2022-09-21T07:05:58;8.32;;;3.95;;
23555;SDS011;11956;53.184;8.578;2022-09-21T07:09:00;5.85;;;3.47;;
23555;SDS011;11956;53.184;8.578;2022-09-21T07:12:02;4.95;;;2.47;;
23555;SDS011;11956;53.184;8.578;2022-09-21T07:15:03;3.80;;;1.90;;
23555;SDS011;11956;53.184;8.578;2022-09-21T07:18:12;3.63;;;2.88;;
23555;SDS011;11956;53.184;8.578;2022-09-21T07:21:13;6.75;;;4.93;;
23555;SDS011;11956;53.184;8.578;2022-09-21T07:24:15;2.45;;;2.17;;
23555;SDS011;11956;53.184;8.578;2022-09-21T07:27:16;3.30;;;2.10;;
23555;SDS011;11956;53.184;8.578;2022-09-21T07:30:16;2.97;;;2.30;;
23555;SDS011;11956;53.184;8.578;2022-09-21T07:33:17;3.28;;;2.42;;
23555;SDS011;11956;53.184;8.578;2022-09-21T07:36:18;6.68;;;2.58;;
23555;SDS011;11956;53.184;8.578;2022-09-21T07:39:19;5.90;;;2.67;;
23555;SDS011;11956;53.184;8.578;2022-09-21T07:42:20;5.45;;;2.40;;
23555;SDS011;11956;53.184;8.578;2022-09-21T07:45:23;5.10;;;2.03;;
23555;SDS011;11956;53.184;8.578;2022-09-21T07:48:25;3.38;;;1.95;;
23555;SDS011;11956;53.184;8.578;2022-09-21T07:51:27;3.63;;;1.90;;
23555;SDS011;11956;53.184;8.578;2022-09-21T07:54:28;3.33;;;1.70;;
23555;SDS011;11956;53.184;8.578;2022-09-21T07:57:30;6.22;;;5.63;;
23555;SDS011;11956;53.184;8.578;2022-09-21T08:00:49;5.38;;;1.90;;
23555;SDS011;11956;53.184;8.578;2022-09-21T08:03:50;3.58;;;1.63;;
23555;SDS011;11956;53.184;8.578;2022-09-21T08:06:53;5.07;;;1.92;;
23555;SDS011;11956;53.184;8.578;2022-09-21T08:09:54;2.83;;;1.45;;
23555;SDS011;11956;53.184;8.578;2022-09-21T08:12:55;3.97;;;1.85;;
23555;SDS011;11956;53.184;8.578;2022-09-21T08:15:58;5.90;;;2.20;;
23555;SDS011;11956;53.184;8.578;2022-09-21T08:19:00;7.50;;;2.50;;
23555;SDS011;11956;53.184;8.578;2022-09-21T08:22:02;6.20;;;2.25;;
23555;SDS011;11956;53.184;8.578;2022-09-21T08:25:03;4.45;;;1.80;;
23555;SDS011;11956;53.184;8.578;2022-09-21T08:28:04;5.50;;;1.92;;
23555;SDS011;11956;53.184;8.578;2022-09-21T08:31:06;3.60;;;1.38;;
23555;SDS011;11956;53.184;8.578;2022-09-21T08:34:08;7.90;;;2.30;;
23555;SDS011;11956;53.184;8.578;2022-09-21T08:37:09;2.90;;;1.33;;
23555;SDS011;11956;53.184;8.578;2022-09-21T08:40:10;6.18;;;1.48;;
23555;SDS011;11956;53.184;8.578;2022-09-21T08:43:37;4.45;;;1.35;;
23555;SDS011;11956;53.184;8.578;2022-09-21T08:46:39;4.45;;;1.38;;
23555;SDS011;11956;53.184;8.578;2022-09-21T08:49:41;2.58;;;1.10;;
23555;SDS011;11956;53.184;8.578;2022-09-21T08:52:50;4.88;;;1.45;;
23555;SDS011;11956;53.184;8.578;2022-09-21T08:55:57;4.55;;;2.47;;
23555;SDS011;11956;53.184;8.578;2022-09-21T08:58:59;4.97;;;1.20;;
23555;SDS011;11956;53.184;8.578;2022-09-21T09:02:12;3.63;;;1.60;;
23555;SDS011;11956;53.184;8.578;2022-09-21T09:16:08;2.50;;;1.00;;
23555;SDS011;11956;53.184;8.578;2022-09-21T09:22:45;5.00;;;1.60;;
23555;SDS011;11956;53.184;8.578;2022-09-21T09:26:03;4.68;;;1.45;;
23555;SDS011;11956;53.184;8.578;2022-09-21T09:29:15;5.78;;;1.38;;
23555;SDS011;11956;53.184;8.578;2022-09-21T09:32:21;3.65;;;1.20;;
23555;SDS011;11956;53.184;8.578;2022-09-21T09:35:39;5.60;;;1.35;;
23555;SDS011;11956;53.184;8.578;2022-09-21T09:39:04;4.00;;;1.05;;
23555;SDS011;11956;53.184;8.578;2022-09-21T09:52:39;4.70;;;1.50;;
23555;SDS011;11956;53.184;8.578;2022-09-21T09:55:41;7.43;;;2.13;;
23555;SDS011;11956;53.184;8.578;2022-09-21T09:58:48;4.72;;;2.03;;
23555;SDS011;11956;53.184;8.578;2022-09-21T10:02:01;8.05;;;3.25;;
23555;SDS011;11956;53.184;8.578;2022-09-21T10:05:18;6.03;;;2.72;;
23555;SDS011;11956;53.184;8.578;2022-09-21T10:11:36;4.65;;;1.35;;
23555;SDS011;11956;53.184;8.578;2022-09-21T10:14:37;6.27;;;1.70;;
23555;SDS011;11956;53.184;8.578;2022-09-21T10:17:38;5.07;;;1.88;;
23555;SDS011;11956;53.184;8.578;2022-09-21T10:20:50;4.22;;;1.13;;
23555;SDS011;11956;53.184;8.578;2022-09-21T10:24:14;11.40;;;6.30;;
23555;SDS011;11956;53.184;8.578;2022-09-21T10:27:27;4.35;;;1.50;;
23555;SDS011;11956;53.184;8.578;2022-09-21T10:30:34;4.30;;;1.40;;
23555;SDS011;11956;53.184;8.578;2022-09-21T10:33:42;8.45;;;2.92;;
23555;SDS011;11956;53.184;8.578;2022-09-21T10:37:25;6.00;;;1.52;;
23555;SDS011;11956;53.184;8.578;2022-09-21T10:40:28;5.60;;;1.25;;
23555;SDS011;11956;53.184;8.578;2022-09-21T10:43:34;8.07;;;2.50;;
23555;SDS011;11956;53.184;8.578;2022-09-21T10:46:42;7.75;;;2.38;;
23555;SDS011;11956;53.184;8.578;2022-09-21T10:49:51;6.53;;;1.80;;
23555;SDS011;11956;53.184;8.578;2022-09-21T10:53:40;5.43;;;0.95;;
23555;SDS011;11956;53.184;8.578;2022-09-21T10:56:28;5.85;;;1.20;;
23555;SDS011;11956;53.184;8.578;2022-09-21T10:59:33;8.20;;;1.60;;
23555;SDS011;11956;53.184;8.578;2022-09-21T11:02:36;8.85;;;2.72;;
23555;SDS011;11956;53.184;8.578;2022-09-21T11:05:38;6.60;;;1.80;;
23555;SDS011;11956;53.184;8.578;2022-09-21T11:08:45;6.53;;;2.10;;
23555;SDS011;11956;53.184;8.578;2022-09-21T11:12:07;9.27;;;3.42;;
23555;SDS011;11956;53.184;8.578;2022-09-21T11:22:54;6.32;;;2.28;;
23555;SDS011;11956;53.184;8.578;2022-09-21T11:30:10;6.97;;;1.20;;
23555;SDS011;11956;53.184;8.578;2022-09-21T11:33:18;6.95;;;1.35;;
23555;SDS011;11956;53.184;8.578;2022-09-21T11:41:02;4.95;;;1.00;;
23555;SDS011;11956;53.184;8.578;2022-09-21T11:44:24;4.57;;;0.98;;
23555;SDS011;11956;53.184;8.578;2022-09-21T11:51:34;4.78;;;1.10;;
23555;SDS011;11956;53.184;8.578;2022-09-21T12:19:49;5.60;;;0.93;;
23555;SDS011;11956;53.184;8.578;2022-09-21T12:23:42;3.80;;;0.95;;
23555;SDS011;11956;53.184;8.578;2022-09-21T12:26:57;6.07;;;0.90;;
23555;SDS011;11956;53.184;8.578;2022-09-21T12:30:13;5.53;;;0.80;;
23555;SDS011;11956;53.184;8.578;2022-09-21T12:33:27;3.78;;;0.90;;
23555;SDS011;11956;53.184;8.578;2022-09-21T12:36:44;3.30;;;0.70;;
23555;SDS011;11956;53.184;8.578;2022-09-21T12:46:23;5.45;;;0.90;;
23555;SDS011;11956;53.184;8.578;2022-09-21T12:49:32;6.07;;;0.88;;
23555;SDS011;11956;53.184;8.578;2022-09-21T12:52:33;4.70;;;1.92;;
23555;SDS011;11956;53.184;8.578;2022-09-21T12:55:41;5.80;;;1.38;;
23555;SDS011;11956;53.184;8.578;2022-09-21T13:02:47;7.72;;;1.45;;
23555;SDS011;11956;53.184;8.578;2022-09-21T13:06:22;3.88;;;0.93;;
23555;SDS011;11956;53.184;8.578;2022-09-21T13:09:44;4.15;;;0.80;;
23555;SDS011;11956;53.184;8.578;2022-09-21T13:12:46;4.35;;;0.93;;
23555;SDS011;11956;53.184;8.578;2022-09-21T13:15:53;5.03;;;0.98;;
23555;SDS011;11956;53.184;8.578;2022-09-21T13:18:55;3.80;;;1.00;;
23555;SDS011;11956;53.184;8.578;2022-09-21T13:25:21;6.70;;;0.75;;
23555;SDS011;11956;53.184;8.578;2022-09-21T13:29:29;4.15;;;0.80;;
23555;SDS011;11956;53.184;8.578;2022-09-21T13:32:01;2.92;;;0.52;;
23555;SDS011;11956;53.184;8.578;2022-09-21T13:48:33;6.15;;;1.20;;
23555;SDS011;11956;53.184;8.578;2022-09-21T13:51:48;3.78;;;0.80;;
23555;SDS011;11956;53.184;8.578;2022-09-21T13:58:41;4.55;;;1.02;;
23555;SDS011;11956;53.184;8.578;2022-09-21T14:01:46;5.28;;;0.85;;
23555;SDS011;11956;53.184;8.578;2022-09-21T14:04:47;9.80;;;2.03;;
23555;SDS011;11956;53.184;8.578;2022-09-21T14:07:57;5.60;;;0.80;;
23555;SDS011;11956;53.184;8.578;2022-09-21T14:11:07;3.85;;;0.75;;
23555;SDS011;11956;53.184;8.578;2022-09-21T14:17:36;5.22;;;1.10;;
23555;SDS011;11956;53.184;8.578;2022-09-21T14:21:06;2.67;;;0.77;;
23555;SDS011;11956;53.184;8.578;2022-09-21T14:24:17;3.15;;;0.60;;
23555;SDS011;11956;53.184;8.578;2022-09-21T14:27:32;4.55;;;0.90;;
23555;SDS011;11956;53.184;8.578;2022-09-21T14:30:50;4.25;;;1.00;;
23555;SDS011;11956;53.184;8.578;2022-09-21T14:33:56;3.17;;;0.70;;
23555;SDS011;11956;53.184;8.578;2022-09-21T14:37:02;3.85;;;0.80;;
23555;SDS011;11956;53.184;8.578;2022-09-21T14:40:45;4.65;;;0.88;;
23555;SDS011;11956;53.184;8.578;2022-09-21T14:43:51;4.93;;;1.10;;
23555;SDS011;11956;53.184;8.578;2022-09-21T14:50:13;5.72;;;0.80;;
23555;SDS011;11956;53.184;8.578;2022-09-21T15:00:47;3.78;;;0.73;;
23555;SDS011;11956;53.184;8.578;2022-09-21T15:17:57;2.97;;;0.85;;
23555;SDS011;11956;53.184;8.578;2022-09-21T15:21:01;3.47;;;0.60;;
23555;SDS011;11956;53.184;8.578;2022-09-21T15:24:20;7.45;;;1.05;;
23555;SDS011;11956;53.184;8.578;2022-09-21T15:27:30;4.72;;;0.77;;
23555;SDS011;11956;53.184;8.578;2022-09-21T15:30:32;3.55;;;0.75;;
23555;SDS011;11956;53.184;8.578;2022-09-21T15:33:45;3.15;;;0.70;;
23555;SDS011;11956;53.184;8.578;2022-09-21T15:36:49;4.47;;;0.82;;
23555;SDS011;11956;53.184;8.578;2022-09-21T15:39:58;3.38;;;0.98;;
23555;SDS011;11956;53.184;8.578;2022-09-21T15:43:19;4.55;;;1.10;;
23555;SDS011;11956;53.184;8.578;2022-09-21T15:46:20;2.78;;;0.55;;
23555;SDS011;11956;53.184;8.578;2022-09-21T15:49:22;5.28;;;0.68;;
23555;SDS011;11956;53.184;8.578;2022-09-21T15:52:26;5.22;;;0.82;;
23555;SDS011;11956;53.184;8.578;2022-09-21T15:55:36;4.10;;;0.90;;
23555;SDS011;11956;53.184;8.578;2022-09-21T15:58:38;5.70;;;1.02;;
23555;SDS011;11956;53.184;8.578;2022-09-21T16:01:51;4.20;;;0.80;;
23555;SDS011;11956;53.184;8.578;2022-09-21T16:04:55;4.40;;;1.10;;
23555;SDS011;11956;53.184;8.578;2022-09-21T16:08:03;3.88;;;1.40;;
23555;SDS011;11956;53.184;8.578;2022-09-21T16:11:35;4.95;;;1.95;;
23555;SDS011;11956;53.184;8.578;2022-09-21T16:14:36;5.15;;;1.67;;
23555;SDS011;11956;53.184;8.578;2022-09-21T16:17:54;9.27;;;1.75;;
23555;SDS011;11956;53.184;8.578;2022-09-21T16:21:14;4.60;;;1.05;;
23555;SDS011;11956;53.184;8.578;2022-09-21T16:24:26;4.13;;;1.08;;
23555;SDS011;11956;53.184;8.578;2022-09-21T16:27:30;4.83;;;1.47;;
23555;SDS011;11956;53.184;8.578;2022-09-21T16:30:45;4.13;;;1.50;;
23555;SDS011;11956;53.184;8.578;2022-09-21T16:40:25;3.90;;;1.08;;
23555;SDS011;11956;53.184;8.578;2022-09-21T16:43:27;1.25;;;0.70;;
23555;SDS011;11956;53.184;8.578;2022-09-21T16:46:29;4.75;;;1.55;;
23555;SDS011;11956;53.184;8.578;2022-09-21T16:49:34;4.15;;;0.80;;
23555;SDS011;11956;53.184;8.578;2022-09-21T16:52:35;4.93;;;0.90;;
23555;SDS011;11956;53.184;8.578;2022-09-21T16:55:36;3.08;;;0.70;;
23555;SDS011;11956;53.184;8.578;2022-09-21T16:58:36;4.22;;;1.30;;
23555;SDS011;11956;53.184;8.578;2022-09-21T17:01:42;4.50;;;1.00;;
23555;SDS011;11956;53.184;8.578;2022-09-21T17:04:43;3.75;;;0.95;;
23555;SDS011;11956;53.184;8.578;2022-09-21T17:07:54;5.20;;;1.05;;
23555;SDS011;11956;53.184;8.578;2022-09-21T17:14:00;4.05;;;1.15;;
23555;SDS011;11956;53.184;8.578;2022-09-21T17:20:32;4.53;;;0.80;;
23555;SDS011;11956;53.184;8.578;2022-09-21T17:23:35;5.75;;;1.25;;
23555;SDS011;11956;53.184;8.578;2022-09-21T17:26:37;5.38;;;1.00;;
23555;SDS011;11956;53.184;8.578;2022-09-21T17:29:38;5.55;;;1.30;;
23555;SDS011;11956;53.184;8.578;2022-09-21T17:32:46;10.23;;;1.33;;
23555;SDS011;11956;53.184;8.578;2022-09-21T17:35:48;5.07;;;0.93;;
23555;SDS011;11956;53.184;8.578;2022-09-21T17:38:50;3.95;;;1.00;;
23555;SDS011;11956;53.184;8.578;2022-09-21T17:48:38;5.97;;;1.38;;
23555;SDS011;11956;53.184;8.578;2022-09-21T17:51:40;9.48;;;2.90;;
23555;SDS011;11956;53.184;8.578;2022-09-21T17:54:59;6.00;;;1.42;;
23555;SDS011;11956;53.184;8.578;2022-09-21T18:01:36;4.50;;;1.15;;
23555;SDS011;11956;53.184;8.578;2022-09-21T18:04:40;4.65;;;1.40;;
23555;SDS011;11956;53.184;8.578;2022-09-21T18:07:41;5.70;;;1.83;;
23555;SDS011;11956;53.184;8.578;2022-09-21T18:10:44;5.82;;;1.17;;
23555;SDS011;11956;53.184;8.578;2022-09-21T18:17:38;4.07;;;1.40;;
23555;SDS011;11956;53.184;8.578;2022-09-21T18:27:11;5.63;;;1.67;;
23555;SDS011;11956;53.184;8.578;2022-09-21T18:30:12;4.93;;;1.40;;
23555;SDS011;11956;53.184;8.578;2022-09-21T18:33:25;6.13;;;1.33;;
23555;SDS011;11956;53.184;8.578;2022-09-21T18:46:26;4.97;;;1.92;;
23555;SDS011;11956;53.184;8.578;2022-09-21T18:49:58;3.63;;;1.88;;
23555;SDS011;11956;53.184;8.578;2022-09-21T18:53:42;7.00;;;2.05;;
23555;SDS011;11956;53.184;8.578;2022-09-21T18:56:48;3.63;;;1.58;;
23555;SDS011;11956;53.184;8.578;2022-09-21T18:59:49;6.15;;;2.05;;
23555;SDS011;11956;53.184;8.578;2022-09-21T19:02:51;5.93;;;2.45;;
23555;SDS011;11956;53.184;8.578;2022-09-21T19:05:56;6.22;;;2.08;;
23555;SDS011;11956;53.184;8.578;2022-09-21T19:30:11;7.43;;;3.35;;
23555;SDS011;11956;53.184;8.578;2022-09-21T19:36:33;6.47;;;3.10;;
23555;SDS011;11956;53.184;8.578;2022-09-21T19:39:34;6.03;;;3.35;;
23555;SDS011;11956;53.184;8.578;2022-09-21T19:49:53;9.15;;;4.05;;
23555;SDS011;11956;53.184;8.578;2022-09-21T19:52:59;7.75;;;3.63;;
23555;SDS011;11956;53.184;8.578;2022-09-21T19:56:19;8.57;;;4.03;;
23555;SDS011;11956;53.184;8.578;2022-09-21T19:59:38;9.27;;;4.00;;
23555;SDS011;11956;53.184;8.578;2022-09-21T20:09:31;7.43;;;3.83;;
23555;SDS011;11956;53.184;8.578;2022-09-21T20:16:44;7.75;;;3.47;;
23555;SDS011;11956;53.184;8.578;2022-09-21T20:20:06;8.70;;;4.25;;
23555;SDS011;11956;53.184;8.578;2022-09-21T20:23:25;8.07;;;4.05;;
23555;SDS011;11956;53.184;8.578;2022-09-21T20:26:27;9.50;;;4.35;;
23555;SDS011;11956;53.184;8.578;2022-09-21T20:29:28;8.20;;;4.20;;
23555;SDS011;11956;53.184;8.578;2022-09-21T20:32:29;6.97;;;3.72;;
23555;SDS011;11956;53.184;8.578;2022-09-21T20:35:31;10.43;;;4.55;;
23555;SDS011;11956;53.184;8.578;2022-09-21T20:38:33;8.40;;;4.70;;
23555;SDS011;11956;53.184;8.578;2022-09-21T20:41:35;8.13;;;4.90;;
23555;SDS011;11956;53.184;8.578;2022-09-21T20:44:37;9.63;;;5.35;;
23555;SDS011;11956;53.184;8.578;2022-09-21T20:47:38;12.15;;;6.03;;
23555;SDS011;11956;53.184;8.578;2022-09-21T20:50:42;10.27;;;5.30;;
23555;SDS011;11956;53.184;8.578;2022-09-21T20:53:46;9.35;;;5.35;;
23555;SDS011;11956;53.184;8.578;2022-09-21T20:56:47;10.35;;;5.32;;
23555;SDS011;11956;53.184;8.578;2022-09-21T20:59:48;8.55;;;5.40;;
23555;SDS011;11956;53.184;8.578;2022-09-21T21:02:49;12.50;;;6.00;;
23555;SDS011;11956;53.184;8.578;2022-09-21T21:05:50;8.65;;;5.28;;
23555;SDS011;11956;53.184;8.578;2022-09-21T21:08:51;10.00;;;5.00;;
23555;SDS011;11956;53.184;8.578;2022-09-21T21:11:52;8.55;;;5.65;;
23555;SDS011;11956;53.184;8.578;2022-09-21T21:14:54;8.15;;;5.03;;
23555;SDS011;11956;53.184;8.578;2022-09-21T21:17:55;9.48;;;5.40;;
23555;SDS011;11956;53.184;8.578;2022-09-21T21:21:00;10.13;;;6.22;;
23555;SDS011;11956;53.184;8.578;2022-09-21T21:24:02;10.35;;;5.82;;
23555;SDS011;11956;53.184;8.578;2022-09-21T21:27:23;9.27;;;6.22;;
23555;SDS011;11956;53.184;8.578;2022-09-21T21:30:24;9.55;;;5.55;;
23555;SDS011;11956;53.184;8.578;2022-09-21T21:33:25;10.80;;;5.90;;
23555;SDS011;11956;53.184;8.578;2022-09-21T21:36:26;9.32;;;5.93;;
23555;SDS011;11956;53.184;8.578;2022-09-21T21:39:27;9.82;;;5.97;;
23555;SDS011;11956;53.184;8.578;2022-09-21T21:42:29;8.80;;;5.45;;
23555;SDS011;11956;53.184;8.578;2022-09-21T21:45:30;10.57;;;5.75;;
23555;SDS011;11956;53.184;8.578;2022-09-21T21:48:31;9.40;;;6.40;;
23555;SDS011;11956;53.184;8.578;2022-09-21T21:51:32;14.15;;;7.07;;
23555;SDS011;11956;53.184;8.578;2022-09-21T21:54:33;10.73;;;6.63;;
23555;SDS011;11956;53.184;8.578;2022-09-21T21:57:35;9.95;;;6.32;;
23555;SDS011;11956;53.184;8.578;2022-09-21T22:00:36;11.48;;;7.22;;
23555;SDS011;11956;53.184;8.578;2022-09-21T22:03:37;11.43;;;7.30;;
23555;SDS011;11956;53.184;8.578;2022-09-21T22:06:39;10.88;;;7.45;;
23555;SDS011;11956;53.184;8.578;2022-09-21T22:09:40;11.32;;;6.75;;
23555;SDS011;11956;53.184;8.578;2022-09-21T22:12:41;10.68;;;7.13;;
23555;SDS011;11956;53.184;8.578;2022-09-21T22:15:43;10.18;;;7.47;;
23555;SDS011;11956;53.184;8.578;2022-09-21T22:18:44;9.00;;;7.15;;
23555;SDS011;11956;53.184;8.578;2022-09-21T22:21:45;9.85;;;6.97;;
23555;SDS011;11956;53.184;8.578;2022-09-21T22:24:46;11.68;;;6.78;;
23555;SDS011;11956;53.184;8.578;2022-09-21T22:27:47;14.52;;;7.88;;
23555;SDS011;11956;53.184;8.578;2022-09-21T22:30:48;9.30;;;6.88;;
23555;SDS011;11956;53.184;8.578;2022-09-21T22:33:49;10.52;;;6.80;;
23555;SDS011;11956;53.184;8.578;2022-09-21T22:36:49;10.43;;;6.70;;
23555;SDS011;11956;53.184;8.578;2022-09-21T22:39:50;10.32;;;6.65;;
23555;SDS011;11956;53.184;8.578;2022-09-21T22:42:52;13.52;;;7.82;;
23555;SDS011;11956;53.184;8.578;2022-09-21T22:45:53;9.95;;;6.97;;
23555;SDS011;11956;53.184;8.578;2022-09-21T22:48:54;9.20;;;7.28;;
23555;SDS011;11956;53.184;8.578;2022-09-21T22:51:54;11.55;;;6.90;;